createdAt,value
2018-11-28T00:02:40.219Z,12.47
2018-11-28T00:07:44.132Z,11.33
2018-11-28T00:12:48.203Z,12.63
2018-11-28T00:17:52.374Z,12.83
2018-11-28T00:22:56.419Z,11.63
2018-11-28T00:28:00.343Z,12.40
2018-11-28T00:33:04.353Z,12.43
2018-11-28T00:38:08.340Z,12.57
2018-11-28T00:43:12.268Z,11.43
2018-11-28T00:48:16.057Z,12.00
2018-11-28T00:53:19.733Z,12.27
2018-11-28T00:58:23.324Z,11.57
2018-11-28T01:03:27.072Z,11.53
2018-11-28T01:08:30.909Z,11.97
2018-11-28T01:13:34.460Z,14.33
2018-11-28T01:18:38.122Z,13.53
2018-11-28T01:23:42.212Z,13.13
2018-11-28T01:28:46.571Z,11.97
2018-11-28T01:33:49.872Z,13.63
2018-11-28T01:38:53.420Z,13.63
2018-11-28T01:43:58.083Z,12.57
2018-11-28T01:49:02.160Z,13.73
2018-11-28T01:54:06.444Z,13.93
2018-11-28T01:59:10.434Z,13.83
2018-11-28T02:04:14.200Z,14.47
2018-11-28T02:09:18.017Z,15.07
2018-11-28T02:14:21.925Z,13.97
2018-11-28T02:19:25.784Z,14.70
2018-11-28T02:24:29.795Z,13.83
2018-11-28T02:29:33.608Z,14.03
2018-11-28T02:34:37.228Z,14.10
2018-11-28T02:39:40.927Z,14.90
2018-11-28T02:44:44.504Z,14.37
2018-11-28T02:49:48.258Z,14.00
2018-11-28T02:54:51.928Z,14.50
2018-11-28T02:59:55.509Z,14.73
2018-11-28T03:04:59.618Z,12.77
2018-11-28T03:10:03.941Z,12.77
2018-11-28T03:15:09.866Z,13.37
2018-11-28T03:20:13.590Z,13.67
2018-11-28T03:25:17.591Z,13.20
2018-11-28T03:30:21.624Z,14.17
2018-11-28T03:35:25.648Z,12.23
2018-11-28T03:40:29.347Z,13.73
2018-11-28T03:45:34.234Z,13.33
2018-11-28T03:50:37.887Z,13.57
2018-11-28T03:55:42.154Z,12.57
2018-11-28T04:00:46.412Z,12.77
2018-11-28T04:05:50.134Z,12.83
2018-11-28T04:10:54.536Z,12.90
2018-11-28T04:15:58.252Z,13.50
2018-11-28T04:21:02.259Z,13.30
2018-11-28T04:26:06.222Z,13.20
2018-11-28T04:31:10.031Z,12.87
2018-11-28T04:36:14.553Z,12.47
2018-11-28T04:41:18.888Z,12.70
2018-11-28T04:46:22.834Z,13.10
2018-11-28T04:51:26.482Z,12.77
2018-11-28T04:56:32.476Z,12.73
2018-11-28T05:01:37.217Z,11.70
2018-11-28T05:07:50.594Z,13.63
2018-11-28T05:12:57.453Z,12.53
2018-11-28T05:18:01.514Z,14.23
2018-11-28T05:23:06.644Z,12.23
2018-11-28T05:28:11.949Z,12.97
2018-11-28T05:33:15.689Z,14.17
2018-11-28T05:38:19.645Z,13.90
2018-11-28T05:43:24.074Z,14.53
2018-11-28T05:48:27.802Z,14.10
2018-11-28T05:53:32.253Z,14.10
2018-11-28T05:58:36.179Z,14.80
2018-11-28T06:03:39.783Z,15.70
2018-11-28T06:08:43.632Z,15.60
2018-11-28T06:13:47.542Z,13.97
2018-11-28T06:18:51.533Z,13.43
2018-11-28T06:23:57.565Z,13.97
2018-11-28T06:29:01.341Z,13.27
2018-11-28T06:34:05.578Z,13.83
2018-11-28T06:39:09.886Z,14.97
2018-11-28T06:44:14.199Z,14.87
2018-11-28T06:49:18.742Z,15.50
2018-11-28T06:54:22.345Z,14.10
2018-11-28T06:59:27.089Z,13.23
2018-11-28T07:04:30.743Z,15.30
2018-11-28T07:09:34.975Z,15.50
2018-11-28T07:14:38.993Z,15.80
2018-11-28T07:19:43.439Z,14.70
2018-11-28T07:24:47.029Z,15.93
2018-11-28T07:29:51.131Z,15.20
2018-11-28T07:34:55.348Z,15.57
2018-11-28T07:39:59.819Z,15.57
2018-11-28T07:45:03.741Z,16.07
2018-11-28T07:50:08.637Z,15.57
2018-11-28T07:55:12.591Z,15.43
2018-11-28T08:00:17.339Z,15.87
2018-11-28T08:05:21.201Z,15.93
2018-11-28T08:10:26.667Z,14.63
2018-11-28T08:15:30.680Z,15.33
2018-11-28T08:20:35.631Z,15.67
2018-11-28T08:25:39.862Z,15.57
2018-11-28T08:30:43.481Z,15.63
2018-11-28T08:35:47.772Z,15.10
2018-11-28T08:40:52.075Z,16.93
2018-11-28T08:45:56.211Z,15.50
2018-11-28T08:51:00.608Z,15.23
2018-11-28T08:56:05.216Z,16.30
2018-11-28T09:01:09.233Z,16.20
2018-11-28T09:06:12.866Z,15.67
2018-11-28T09:11:17.087Z,14.67
2018-11-28T09:16:20.704Z,16.03
2018-11-28T09:21:24.445Z,15.30
2018-11-28T09:26:28.468Z,15.60
2018-11-28T09:31:32.688Z,15.30
2018-11-28T09:36:36.891Z,14.97
2018-11-28T09:41:41.060Z,14.80
2018-11-28T09:46:44.949Z,14.83
2018-11-28T09:51:48.995Z,14.90
2018-11-28T09:56:53.055Z,14.87
2018-11-28T10:02:13.046Z,15.17
2018-11-28T10:07:17.207Z,14.80
2018-11-28T10:12:21.637Z,14.67
2018-11-28T10:17:26.053Z,15.97
2018-11-28T10:22:30.386Z,13.83
2018-11-28T10:27:34.550Z,15.07
2018-11-28T10:32:39.134Z,14.00
2018-11-28T10:37:43.301Z,13.33
2018-11-28T10:42:52.709Z,13.93
2018-11-28T10:47:57.495Z,14.63
2018-11-28T10:53:01.316Z,13.97
2018-11-28T10:58:06.442Z,13.40
2018-11-28T11:03:15.371Z,13.10
2018-11-28T11:08:25.293Z,12.80
2018-11-28T11:13:35.255Z,12.07
2018-11-28T11:18:39.031Z,12.40
2018-11-28T11:23:43.127Z,13.00
2018-11-28T11:28:46.878Z,12.67
2018-11-28T11:33:50.917Z,12.37
2018-11-28T11:38:54.808Z,11.70
2018-11-28T11:43:58.567Z,12.37
2018-11-28T11:49:02.553Z,10.67
2018-11-28T11:54:06.312Z,10.40
2018-11-28T11:59:09.957Z,10.47
2018-11-28T12:04:13.709Z,10.20
2018-11-28T12:09:17.385Z,10.33
2018-11-28T12:14:21.169Z,11.17
2018-11-28T12:19:25.177Z,11.27
2018-11-28T12:24:29.149Z,10.80
2018-11-28T12:29:32.681Z,10.10
2018-11-28T12:34:36.775Z,10.97
2018-11-28T12:39:41.107Z,10.37
2018-11-28T12:44:44.855Z,10.17
2018-11-28T12:49:49.262Z,10.23
2018-11-28T12:54:52.936Z,9.90
2018-11-28T12:59:58.685Z,9.70
2018-11-28T13:05:02.352Z,9.90
2018-11-28T13:10:09.783Z,10.53
2018-11-28T13:15:17.581Z,10.23
2018-11-28T13:20:22.221Z,9.97
2018-11-28T13:25:31.352Z,10.53
2018-11-28T13:30:35.604Z,10.07
2018-11-28T13:35:39.908Z,10.50
2018-11-28T13:40:44.233Z,9.43
2018-11-28T13:45:49.257Z,10.00
2018-11-28T13:50:53.211Z,10.37
2018-11-28T14:01:02.180Z,10.07
2018-11-28T14:06:06.430Z,9.37
2018-11-28T14:11:10.188Z,9.23
2018-11-28T14:16:14.319Z,9.00
2018-11-28T14:21:18.778Z,9.10
2018-11-28T14:26:23.445Z,8.67
2018-11-28T14:31:27.309Z,8.70
2018-11-28T14:36:31.303Z,8.73
2018-11-28T14:41:35.304Z,8.53
2018-11-28T14:46:38.927Z,8.47
2018-11-28T14:51:43.111Z,8.87
2018-11-28T14:56:47.077Z,8.13
2018-11-28T15:01:50.601Z,8.20
2018-11-28T15:06:57.787Z,8.47
2018-11-28T15:12:02.099Z,8.20
2018-11-28T15:17:06.386Z,9.80
2018-11-28T15:22:10.141Z,7.83
2018-11-28T15:27:14.342Z,9.03
2018-11-28T15:32:18.236Z,9.30
2018-11-28T15:37:22.119Z,8.97
2018-11-28T15:42:26.004Z,9.10
2018-11-28T15:47:30.005Z,9.23
2018-11-28T15:52:33.976Z,9.47
2018-11-28T15:57:37.836Z,9.57
2018-11-28T16:02:42.663Z,10.30
2018-11-28T16:07:46.557Z,9.30
2018-11-28T16:12:51.065Z,9.13
2018-11-28T16:17:55.102Z,9.60
2018-11-28T16:23:04.331Z,9.60
2018-11-28T16:28:03.056Z,10.23
2018-11-28T16:33:07.504Z,9.27
2018-11-28T16:38:11.975Z,9.87
2018-11-28T16:43:16.588Z,10.37
2018-11-28T16:48:21.228Z,10.47
2018-11-28T16:53:25.223Z,11.20
2018-11-28T16:58:29.349Z,11.43
2018-11-28T17:03:33.163Z,11.77
2018-11-28T17:08:37.069Z,11.97
2018-11-28T17:13:41.850Z,11.93
2018-11-28T17:18:45.470Z,11.77
2018-11-28T17:23:49.177Z,12.30
2018-11-28T17:29:02.957Z,12.23
2018-11-28T17:34:06.685Z,13.53
2018-11-28T17:39:11.803Z,12.60
2018-11-28T17:44:15.525Z,13.57
2018-11-28T17:49:19.208Z,12.37
2018-11-28T17:54:23.805Z,12.83
2018-11-28T17:59:27.583Z,13.43
2018-11-28T18:04:31.391Z,12.27
2018-11-28T18:09:35.368Z,12.07
2018-11-28T18:14:39.369Z,13.20
2018-11-28T18:19:43.437Z,12.60
2018-11-28T18:24:47.533Z,11.40
2018-11-28T18:29:51.088Z,12.27
2018-11-28T18:34:54.782Z,11.63
2018-11-28T18:39:58.875Z,11.97
2018-11-28T18:45:02.322Z,11.10
2018-11-28T18:50:08.423Z,11.63
2018-11-28T18:55:16.763Z,10.67
2018-11-28T19:00:26.732Z,10.17
2018-11-28T19:05:37.091Z,10.43
2018-11-28T19:10:40.785Z,10.13
2018-11-28T19:15:44.440Z,9.73
2018-11-28T19:20:48.455Z,10.17
2018-11-28T19:25:53.382Z,8.77
2018-11-28T19:30:57.678Z,8.90
2018-11-28T19:36:01.710Z,8.70
2018-11-28T19:41:08.040Z,8.80
2018-11-28T19:46:11.907Z,8.30
2018-11-28T19:51:15.643Z,8.57
2018-11-28T19:56:25.757Z,8.37
2018-11-28T20:01:29.554Z,8.90
2018-11-28T20:06:33.372Z,7.80
2018-11-28T20:11:37.208Z,7.77
2018-11-28T20:16:40.904Z,8.37
2018-11-28T20:21:45.139Z,8.27
2018-11-28T20:26:48.847Z,8.47
2018-11-28T20:31:52.400Z,8.47
2018-11-28T20:36:56.032Z,8.27
2018-11-28T20:41:59.728Z,7.20
2018-11-28T20:47:04.334Z,7.80
2018-11-28T20:52:07.880Z,8.17
2018-11-28T20:57:17.204Z,7.67
2018-11-28T21:02:16.075Z,7.33
2018-11-28T21:07:19.880Z,7.00
2018-11-28T21:12:23.457Z,7.57
2018-11-28T21:17:27.032Z,7.30
2018-11-28T21:22:33.250Z,7.07
2018-11-28T21:27:36.975Z,7.40
2018-11-28T21:32:41.036Z,7.70
2018-11-28T21:37:45.002Z,7.70
2018-11-28T21:42:52.696Z,7.33
2018-11-28T21:47:56.246Z,8.17
2018-11-28T21:53:00.075Z,8.10
2018-11-28T21:58:03.727Z,8.83
2018-11-28T22:03:07.859Z,8.20
2018-11-28T22:08:11.576Z,8.10
2018-11-28T22:13:15.359Z,8.63
2018-11-28T22:18:18.923Z,8.10
2018-11-28T22:23:22.503Z,8.50
2018-11-28T22:28:26.520Z,8.93
2018-11-28T22:33:30.448Z,8.40
2018-11-28T22:38:34.570Z,8.17
2018-11-28T22:43:38.695Z,8.80
2018-11-28T22:48:42.744Z,8.20
2018-11-28T22:53:46.836Z,7.73
2018-11-28T22:58:51.099Z,8.57
2018-11-28T23:03:54.720Z,8.30
2018-11-28T23:08:58.681Z,8.20
2018-11-28T23:14:02.479Z,7.77
2018-11-28T23:19:06.254Z,8.07
2018-11-28T23:24:10.376Z,7.40
2018-11-28T23:29:14.192Z,7.83
2018-11-28T23:34:18.030Z,8.13
2018-11-28T23:39:22.031Z,7.87
2018-11-28T23:44:25.766Z,8.33
2018-11-28T23:49:29.512Z,7.57
2018-11-28T23:54:33.531Z,7.73
2018-11-28T23:59:37.255Z,7.27
